Time;durP1;ratioP1;P1;durP2;ratioP2;P2;SDS_P1;SDS_P2;PMS_P1;PMS_P2;Temp;Humidity;BMP_temperature;BMP_pressure;BME280_temperature;BME280_humidity;BME280_pressure;Samples;Min_cycle;Max_cycle;Signal;HPM_P1;HPM_P2
2023/06/05 00:02:13;;;;;;;2.30;1.47;;;14.60;99.90;;;;;;4867539;29;20208;-63
2023/06/05 00:04:40;;;;;;;2.20;1.30;;;14.50;99.90;;;;;;4898106;29;20205;-58
2023/06/05 00:07:08;;;;;;;2.60;1.27;;;14.50;99.90;;;;;;4863372;29;20253;-57
2023/06/05 00:09:35;;;;;;;3.67;1.43;;;14.50;99.90;;;;;;4888221;29;20600;-58
2023/06/05 00:12:02;;;;;;;1.17;1.00;;;14.40;99.90;;;;;;4868753;29;20416;-57
2023/06/05 00:14:30;;;;;;;1.70;1.27;;;14.40;99.90;;;;;;4876200;29;20586;-57
2023/06/05 00:16:57;;;;;;;1.50;1.23;;;14.30;99.90;;;;;;4886422;29;20216;-59
2023/06/05 00:19:24;;;;;;;1.73;1.30;;;14.30;99.90;;;;;;4885684;29;20216;-61
2023/06/05 00:21:52;;;;;;;0.90;0.90;;;14.30;99.90;;;;;;4889689;29;20208;-56
2023/06/05 00:24:19;;;;;;;1.40;1.30;;;14.40;99.90;;;;;;4888704;29;20205;-69
2023/06/05 00:26:47;;;;;;;1.83;1.50;;;14.30;99.90;;;;;;4888271;29;20199;-57
2023/06/05 00:29:14;;;;;;;2.03;1.50;;;14.10;99.90;;;;;;4897045;29;20203;-68
2023/06/05 00:31:46;;;;;;;1.53;1.40;;;14.10;99.90;;;;;;4870184;29;20327;-59
2023/06/05 00:34:13;;;;;;;2.00;1.70;;;14.00;99.90;;;;;;4867864;29;20209;-62
2023/06/05 00:36:41;;;;;;;1.87;1.37;;;13.90;99.90;;;;;;4875339;29;20223;-66
2023/06/05 00:39:08;;;;;;;1.87;1.27;;;14.00;99.90;;;;;;4885408;29;20208;-55
2023/06/05 00:41:37;;;;;;;1.23;1.13;;;13.90;99.90;;;;;;4870268;29;20193;-55
2023/06/05 00:44:05;;;;;;;2.27;1.03;;;13.90;99.90;;;;;;4885898;29;20206;-57
2023/06/05 00:46:32;;;;;;;1.20;1.10;;;14.00;99.90;;;;;;4888722;29;20285;-58
2023/06/05 00:48:59;;;;;;;3.07;1.53;;;14.00;99.90;;;;;;4889330;29;20261;-58
2023/06/05 00:51:26;;;;;;;3.10;1.63;;;13.90;99.90;;;;;;4868903;29;20201;-57
2023/06/05 00:53:54;;;;;;;1.23;1.13;;;13.90;99.90;;;;;;4894315;29;20563;-57
2023/06/05 00:56:22;;;;;;;2.20;1.50;;;13.80;99.90;;;;;;4881542;29;20232;-57
2023/06/05 00:58:50;;;;;;;2.03;1.57;;;13.80;99.90;;;;;;4876077;29;20221;-62
2023/06/05 01:01:17;;;;;;;2.80;1.53;;;13.70;99.90;;;;;;4897805;29;20201;-67
2023/06/05 01:03:44;;;;;;;1.70;1.30;;;13.60;99.90;;;;;;4860207;29;20197;-58
2023/06/05 01:06:12;;;;;;;1.20;0.97;;;13.50;99.90;;;;;;4897008;29;20270;-57
2023/06/05 01:08:39;;;;;;;6.97;1.30;;;13.50;99.90;;;;;;4870348;29;20304;-62
2023/06/05 01:11:23;;;;;;;1.73;1.50;;;13.50;99.90;;;;;;4891856;29;20616;-57
2023/06/05 01:14:01;;;;;;;2.60;1.70;;;13.50;99.90;;;;;;4869820;29;20213;-57
2023/06/05 01:16:30;;;;;;;2.33;1.60;;;13.50;99.90;;;;;;4875648;29;20216;-56
2023/06/05 01:19:02;;;;;;;1.90;1.50;;;13.50;99.90;;;;;;4860191;29;20296;-64
2023/06/05 01:21:32;;;;;;;1.30;1.20;;;13.40;99.90;;;;;;4873978;29;20197;-59
2023/06/05 01:23:59;;;;;;;1.47;1.10;;;13.40;99.90;;;;;;4874508;29;20208;-59
2023/06/05 01:26:39;;;;;;;1.83;1.50;;;13.30;99.90;;;;;;4875821;29;20201;-56
2023/06/05 01:29:10;;;;;;;1.60;1.50;;;13.30;99.90;;;;;;4869939;29;20198;-57
2023/06/05 01:31:41;;;;;;;1.87;1.67;;;13.20;99.90;;;;;;4876154;29;20660;-57
2023/06/05 01:34:13;;;;;;;1.63;1.17;;;13.20;99.90;;;;;;4859242;29;20294;-56
2023/06/05 01:36:41;;;;;;;1.93;1.20;;;13.20;99.90;;;;;;4856734;29;20224;-57
2023/06/05 01:39:09;;;;;;;9.50;1.67;;;13.20;99.90;;;;;;4854432;29;20227;-62
2023/06/05 01:41:39;;;;;;;2.07;1.47;;;13.10;99.90;;;;;;4890320;29;20185;-57
2023/06/05 01:44:08;;;;;;;3.13;1.40;;;13.10;99.90;;;;;;4877878;29;20723;-57
2023/06/05 01:46:35;;;;;;;1.80;1.50;;;13.10;99.90;;;;;;4900388;29;20202;-56
2023/06/05 01:49:02;;;;;;;2.73;1.50;;;13.10;99.90;;;;;;4898632;29;20211;-56
2023/06/05 01:51:29;;;;;;;3.10;1.90;;;13.00;99.90;;;;;;4869480;29;20267;-60
2023/06/05 01:53:57;;;;;;;1.47;1.30;;;13.00;99.90;;;;;;4877312;29;20201;-72
2023/06/05 01:56:25;;;;;;;2.47;1.60;;;13.00;99.90;;;;;;4889617;29;20311;-60
2023/06/05 01:58:53;;;;;;;1.60;1.20;;;13.00;99.90;;;;;;4884252;29;20205;-58
2023/06/05 02:01:22;;;;;;;1.50;1.30;;;12.90;99.90;;;;;;4872299;29;20253;-61
2023/06/05 02:03:50;;;;;;;2.03;1.63;;;13.00;99.90;;;;;;4894541;29;20223;-57
2023/06/05 02:06:17;;;;;;;1.50;1.40;;;13.20;99.90;;;;;;4875265;29;20675;-58
2023/06/05 02:08:44;;;;;;;6.73;1.97;;;13.40;99.90;;;;;;4888138;29;20213;-57
2023/06/05 02:11:11;;;;;;;5.00;2.00;;;13.40;99.90;;;;;;4884963;29;20590;-59
2023/06/05 02:13:39;;;;;;;2.67;2.03;;;13.50;99.90;;;;;;4867886;29;20214;-58
2023/06/05 02:16:10;;;;;;;2.73;2.03;;;13.60;99.90;;;;;;4873610;29;20284;-58
2023/06/05 02:18:37;;;;;;;2.10;1.90;;;13.60;99.90;;;;;;4875198;29;20193;-58
2023/06/05 02:21:05;;;;;;;5.53;1.80;;;13.70;99.90;;;;;;4890033;29;20259;-62
2023/06/05 02:23:33;;;;;;;4.37;2.10;;;13.70;99.90;;;;;;4890348;29;20223;-58
2023/06/05 02:26:00;;;;;;;2.47;1.93;;;13.70;99.90;;;;;;4893565;29;20237;-58
2023/06/05 02:28:27;;;;;;;4.70;2.67;;;13.70;99.90;;;;;;4892113;29;20250;-58
2023/06/05 02:30:54;;;;;;;2.80;2.20;;;13.60;99.90;;;;;;4885488;29;20215;-58
2023/06/05 02:33:23;;;;;;;2.67;2.23;;;13.70;99.90;;;;;;4876250;29;20205;-63
2023/06/05 02:35:51;;;;;;;6.80;2.10;;;13.70;99.90;;;;;;4871858;29;20284;-59
2023/06/05 02:38:19;;;;;;;2.40;2.10;;;13.70;99.90;;;;;;4892429;29;20217;-61
2023/06/05 02:40:47;;;;;;;4.07;2.50;;;13.70;99.90;;;;;;4871241;29;20276;-57
2023/06/05 02:43:14;;;;;;;3.97;2.10;;;13.60;99.90;;;;;;4891106;29;20231;-58
2023/06/05 02:45:41;;;;;;;2.30;1.73;;;13.60;99.90;;;;;;4874309;29;20211;-57
2023/06/05 02:48:08;;;;;;;2.33;1.93;;;13.60;99.90;;;;;;4872582;29;20209;-61
2023/06/05 02:50:36;;;;;;;3.00;2.03;;;13.60;99.90;;;;;;4868446;29;20212;-58
2023/06/05 02:53:06;;;;;;;2.60;1.87;;;13.60;99.90;;;;;;4862912;29;20230;-59
2023/06/05 02:55:36;;;;;;;2.73;2.03;;;13.40;99.90;;;;;;4884704;29;20197;-60
2023/06/05 02:58:08;;;;;;;5.60;2.77;;;13.40;99.90;;;;;;4872808;29;20265;-56
2023/06/05 03:00:44;;;;;;;2.17;1.50;;;13.20;99.90;;;;;;4872334;29;20283;-56
2023/06/05 03:03:12;;;;;;;2.20;1.57;;;12.90;99.90;;;;;;4859038;29;20303;-56
2023/06/05 03:05:40;;;;;;;2.93;2.13;;;12.80;99.90;;;;;;4861410;29;20224;-56
2023/06/05 03:08:11;;;;;;;1.97;1.70;;;12.60;99.90;;;;;;4872760;29;20205;-55
2023/06/05 03:10:38;;;;;;;2.23;2.03;;;12.50;99.90;;;;;;4861135;29;20438;-55
2023/06/05 03:13:06;;;;;;;3.03;2.33;;;12.50;99.90;;;;;;4877880;29;20189;-61
2023/06/05 03:15:35;;;;;;;2.47;1.70;;;12.40;99.90;;;;;;4873204;29;20193;-61
2023/06/05 03:18:03;;;;;;;2.80;1.60;;;12.30;99.90;;;;;;4870764;29;20193;-60
2023/06/05 03:20:31;;;;;;;1.97;1.73;;;12.30;99.90;;;;;;4870256;29;20201;-58
2023/06/05 03:22:58;;;;;;;1.93;1.77;;;12.30;99.90;;;;;;4864367;29;20198;-56
2023/06/05 03:25:25;;;;;;;1.87;1.67;;;12.30;99.90;;;;;;4875284;29;20280;-56
2023/06/05 03:27:55;;;;;;;6.30;2.07;;;12.20;99.90;;;;;;4869965;29;20197;-56
2023/06/05 03:30:25;;;;;;;2.20;2.00;;;12.20;99.90;;;;;;4885755;29;20217;-65
2023/06/05 03:32:54;;;;;;;4.47;2.30;;;12.20;99.90;;;;;;4872380;29;20603;-57
2023/06/05 03:35:22;;;;;;;2.00;1.80;;;12.30;99.90;;;;;;4877021;29;20913;-56
2023/06/05 03:37:50;;;;;;;1.93;1.60;;;12.20;99.90;;;;;;4876047;29;20315;-61
2023/06/05 03:40:17;;;;;;;2.27;1.90;;;12.20;99.90;;;;;;4873367;29;20220;-56
2023/06/05 03:42:45;;;;;;;1.60;1.37;;;12.20;99.90;;;;;;4872454;29;20353;-56
2023/06/05 03:45:13;;;;;;;3.37;2.03;;;12.20;99.90;;;;;;4877275;29;20676;-55
2023/06/05 03:47:41;;;;;;;3.77;2.43;;;12.30;99.90;;;;;;4858619;29;20201;-56
2023/06/05 03:50:11;;;;;;;3.20;2.17;;;12.30;99.90;;;;;;4873242;29;20271;-55
2023/06/05 03:52:42;;;;;;;1.63;1.50;;;12.50;99.90;;;;;;4867939;29;20804;-55
2023/06/05 03:55:10;;;;;;;3.27;1.80;;;12.90;99.90;;;;;;4880542;29;20197;-55
2023/06/05 03:57:38;;;;;;;3.10;2.40;;;13.10;99.90;;;;;;4867754;29;20805;-55
2023/06/05 04:00:10;;;;;;;56.30;4.83;;;13.30;99.90;;;;;;4879162;29;20205;-62
2023/06/05 04:02:47;;;;;;;15.53;4.17;;;13.50;99.90;;;;;;4874486;29;20358;-56
2023/06/05 04:05:15;;;;;;;5.23;2.10;;;13.80;99.90;;;;;;4871458;29;20202;-57
2023/06/05 04:07:43;;;;;;;12.70;2.83;;;14.00;99.90;;;;;;4867679;29;20209;-62
2023/06/05 04:10:10;;;;;;;2.33;2.03;;;14.00;99.90;;;;;;4881886;29;20205;-56
2023/06/05 04:12:37;;;;;;;2.30;1.90;;;14.00;99.90;;;;;;4871468;29;20201;-58
2023/06/05 04:15:06;;;;;;;4.43;2.40;;;13.70;99.90;;;;;;4870734;29;20863;-67
2023/06/05 04:17:33;;;;;;;1.97;1.50;;;13.90;99.90;;;;;;4887049;29;20309;-63
2023/06/05 04:20:01;;;;;;;2.57;1.97;;;14.30;99.90;;;;;;4862919;29;20194;-56
2023/06/05 04:22:28;;;;;;;2.57;2.30;;;14.90;99.90;;;;;;4885023;29;20558;-57
2023/06/05 04:24:55;;;;;;;36.03;3.73;;;15.30;99.90;;;;;;4871618;29;20252;-58
2023/06/05 04:27:22;;;;;;;33.72;3.60;;;15.70;99.90;;;;;;4871001;29;20224;-71
2023/06/05 04:29:49;;;;;;;10.55;2.80;;;15.90;99.90;;;;;;4863238;29;20675;-59
2023/06/05 04:32:17;;;;;;;5.40;2.70;;;16.00;99.90;;;;;;4874126;29;20208;-68
2023/06/05 04:34:45;;;;;;;4.15;2.10;;;15.90;99.90;;;;;;4874666;29;20289;-69
2023/06/05 04:37:13;;;;;;;2.25;1.85;;;16.30;99.90;;;;;;4868168;29;20213;-61
2023/06/05 04:39:40;;;;;;;18.20;2.88;;;16.30;99.90;;;;;;4879622;29;20232;-65
2023/06/05 04:42:07;;;;;;;6.30;2.10;;;16.60;99.90;;;;;;4872560;29;20223;-68
2023/06/05 04:44:40;;;;;;;4.60;2.22;;;17.10;99.90;;;;;;4869939;29;20285;-68
2023/06/05 04:47:08;;;;;;;3.28;2.13;;;17.30;99.90;;;;;;4888471;29;20301;-69
2023/06/05 04:49:36;;;;;;;5.75;2.28;;;17.30;99.90;;;;;;4882628;29;20222;-68
2023/06/05 04:52:03;;;;;;;8.15;2.72;;;17.70;99.90;;;;;;4891289;29;20273;-71
2023/06/05 04:54:30;;;;;;;5.28;2.78;;;17.70;99.90;;;;;;4869290;29;20712;-72
2023/06/05 04:57:01;;;;;;;3.88;2.80;;;18.10;99.90;;;;;;4876015;29;20349;-69
2023/06/05 04:59:32;;;;;;;3.53;2.53;;;18.30;99.90;;;;;;4873941;29;20697;-69
2023/06/05 05:02:00;;;;;;;14.32;2.72;;;18.70;99.90;;;;;;4877569;29;20244;-69
2023/06/05 05:04:27;;;;;;;5.47;2.75;;;18.70;99.90;;;;;;4890870;29;20189;-72
2023/06/05 05:06:54;;;;;;;3.70;2.35;;;19.50;99.90;;;;;;4870817;29;20246;-70
2023/06/05 05:09:22;;;;;;;4.25;2.50;;;19.70;99.90;;;;;;4872435;29;20577;-69
2023/06/05 05:11:51;;;;;;;5.65;2.60;;;19.90;99.90;;;;;;4872926;29;20213;-70
2023/06/05 05:14:18;;;;;;;12.73;2.67;;;20.70;99.90;;;;;;4878534;29;20669;-69
2023/06/05 05:16:46;;;;;;;2.75;1.90;;;20.30;99.90;;;;;;4856266;29;20259;-74
2023/06/05 05:19:13;;;;;;;2.72;1.67;;;20.00;99.90;;;;;;4873163;29;20197;-70
2023/06/05 05:21:40;;;;;;;2.53;1.55;;;19.70;99.90;;;;;;4871723;29;20577;-69
2023/06/05 05:24:08;;;;;;;2.38;1.77;;;20.20;99.90;;;;;;4872091;29;20210;-69
2023/06/05 05:26:36;;;;;;;3.42;2.03;;;20.00;99.90;;;;;;4870988;29;20309;-69
2023/06/05 05:29:03;;;;;;;2.97;2.05;;;20.30;99.90;;;;;;4870168;29;20640;-69
2023/06/05 05:31:30;;;;;;;2.35;1.50;;;19.90;99.90;;;;;;4869600;29;20202;-69
2023/06/05 05:33:58;;;;;;;3.70;1.75;;;20.60;99.90;;;;;;4844760;29;20236;-70
2023/06/05 05:36:26;;;;;;;1.88;1.65;;;20.80;99.90;;;;;;4861419;29;20296;-70
2023/06/05 05:38:54;;;;;;;4.35;1.75;;;21.20;99.90;;;;;;4866620;29;20229;-69
2023/06/05 05:41:21;;;;;;;3.00;1.60;;;22.00;99.90;;;;;;4870722;29;20210;-69
2023/06/05 05:43:48;;;;;;;3.13;1.88;;;22.50;99.90;;;;;;4874471;29;20189;-70
2023/06/05 05:46:15;;;;;;;3.35;1.80;;;22.80;99.90;;;;;;4875440;29;20682;-69
2023/06/05 05:48:42;;;;;;;4.90;1.80;;;23.40;99.90;;;;;;4881637;29;20232;-69
2023/06/05 05:51:10;;;;;;;2.35;1.63;;;22.00;99.90;;;;;;4867349;29;20205;-68
2023/06/05 05:53:37;;;;;;;2.58;1.42;;;21.70;99.90;;;;;;4866875;29;20198;-69
2023/06/05 05:56:04;;;;;;;2.28;1.58;;;22.80;99.90;;;;;;4879546;29;20205;-74
2023/06/05 05:58:32;;;;;;;2.42;1.55;;;23.50;99.90;;;;;;4867216;29;20595;-70
2023/06/05 06:00:59;;;;;;;2.75;1.80;;;23.00;99.90;;;;;;4870645;29;20229;-69
2023/06/05 06:03:26;;;;;;;2.95;1.77;;;23.90;99.90;;;;;;4865763;29;20745;-69
2023/06/05 06:05:57;;;;;;;2.03;1.80;;;25.20;99.90;;;;;;4868508;29;20888;-69
2023/06/05 06:08:24;;;;;;;2.72;1.80;;;24.20;99.90;;;;;;4871556;29;20639;-69
2023/06/05 06:10:51;;;;;;;2.60;1.60;;;24.30;99.90;;;;;;4865489;29;20201;-70
2023/06/05 06:13:18;;;;;;;1.88;1.58;;;25.70;99.90;;;;;;4871922;29;20527;-69
2023/06/05 06:15:45;;;;;;;2.90;1.80;;;25.30;99.90;;;;;;4870872;29;20702;-70
2023/06/05 06:18:12;;;;;;;8.50;3.15;;;26.40;99.90;;;;;;4862126;29;20308;-69
2023/06/05 06:20:39;;;;;;;3.15;2.05;;;26.90;99.90;;;;;;4865720;29;20200;-69
2023/06/05 06:23:06;;;;;;;3.25;2.28;;;26.30;99.90;;;;;;4863468;29;20222;-68
2023/06/05 06:25:34;;;;;;;4.63;2.33;;;26.10;99.90;;;;;;4866068;29;20209;-69
2023/06/05 06:28:01;;;;;;;4.05;2.35;;;26.20;99.90;;;;;;4866695;29;20316;-69
2023/06/05 06:30:28;;;;;;;2.90;1.85;;;26.30;99.90;;;;;;4862100;29;20261;-69
2023/06/05 06:33:00;;;;;;;7.70;2.65;;;26.90;99.90;;;;;;4863727;29;20205;-69
2023/06/05 06:35:27;;;;;;;3.85;1.88;;;25.50;99.90;;;;;;4865994;29;20201;-69
2023/06/05 06:37:56;;;;;;;2.90;2.10;;;26.70;99.90;;;;;;4864484;29;21126;-72
2023/06/05 06:40:23;;;;;;;2.72;1.90;;;26.70;99.90;;;;;;4866527;29;20665;-68
2023/06/05 06:42:50;;;;;;;3.38;1.98;;;27.20;99.90;;;;;;4868240;29;20198;-69
2023/06/05 06:45:31;;;;;;;5.25;2.35;;;27.20;99.90;;;;;;4860077;29;20957;-69
2023/06/05 06:47:58;;;;;;;3.85;2.00;;;26.90;99.90;;;;;;4865865;29;20218;-69
2023/06/05 06:50:34;;;;;;;3.17;2.13;;;25.30;99.90;;;;;;4868320;29;20219;-70
2023/06/05 06:53:02;;;;;;;2.90;2.20;;;27.10;99.90;;;;;;4868573;29;20757;-68
2023/06/05 06:55:29;;;;;;;4.05;2.10;;;27.20;99.90;;;;;;4870017;29;20207;-69
2023/06/05 06:57:56;;;;;;;2.72;1.88;;;28.10;99.90;;;;;;4867473;29;20273;-68
2023/06/05 07:00:23;;;;;;;4.13;2.28;;;29.50;99.90;;;;;;4872118;29;20600;-69
2023/06/05 07:02:50;;;;;;;3.38;2.45;;;29.60;99.90;;;;;;4866202;29;20254;-69
2023/06/05 07:05:19;;;;;;;2.10;1.70;;;29.70;99.90;;;;;;4853598;29;20699;-66
2023/06/05 07:07:47;;;;;;;2.88;1.77;;;31.00;99.90;;;;;;4871549;29;20647;-68
2023/06/05 07:10:14;;;;;;;3.45;2.03;;;31.40;99.90;;;;;;4875057;29;20271;-67
2023/06/05 07:12:41;;;;;;;2.83;2.00;;;31.40;99.90;;;;;;4875531;29;20213;-67
2023/06/05 07:15:08;;;;;;;3.05;1.80;;;32.00;99.90;;;;;;4888003;29;20288;-68
2023/06/05 07:17:35;;;;;;;2.67;2.33;;;32.70;99.90;;;;;;4887350;29;20599;-67
2023/06/05 07:20:05;;;;;;;5.65;1.63;;;32.60;99.90;;;;;;4851449;29;20205;-68
2023/06/05 07:22:32;;;;;;;7.55;2.88;;;33.10;99.90;;;;;;4867450;29;20317;-67
2023/06/05 07:25:00;;;;;;;3.25;2.30;;;33.60;99.90;;;;;;4868383;29;20205;-69
2023/06/05 07:27:28;;;;;;;1.95;1.75;;;33.60;99.90;;;;;;4867054;29;20608;-67
2023/06/05 07:29:56;;;;;;;4.03;2.20;;;34.40;99.90;;;;;;4887533;29;20212;-67
2023/06/05 07:32:23;;;;;;;4.15;1.90;;;33.90;99.90;;;;;;4887813;29;20672;-68
2023/06/05 07:34:51;;;;;;;4.30;2.03;;;32.00;99.90;;;;;;4887948;29;20241;-67
2023/06/05 07:37:18;;;;;;;4.68;2.10;;;33.00;99.90;;;;;;4885518;29;20209;-67
2023/06/05 07:39:47;;;;;;;2.55;1.83;;;34.10;99.90;;;;;;4883208;29;20201;-68
2023/06/05 07:42:14;;;;;;;2.65;2.10;;;34.10;99.90;;;;;;4887060;29;20398;-67
2023/06/05 07:44:42;;;;;;;2.45;1.75;;;33.20;99.90;;;;;;4898941;29;20281;-67
2023/06/05 07:47:09;;;;;;;1.83;1.52;;;33.20;99.90;;;;;;4886821;29;20284;-68
2023/06/05 07:49:36;;;;;;;3.80;2.10;;;34.40;99.80;;;;;;4870044;29;20280;-68
2023/06/05 07:52:03;;;;;;;4.43;1.85;;;35.30;98.80;;;;;;4865142;29;20203;-69
2023/06/05 07:54:30;;;;;;;4.75;2.40;;;36.00;97.90;;;;;;4872790;29;21049;-68
2023/06/05 07:56:58;;;;;;;2.60;2.03;;;35.70;98.10;;;;;;4874790;29;20285;-67
2023/06/05 07:59:27;;;;;;;1.60;1.45;;;34.70;96.40;;;;;;4867352;29;20215;-68
2023/06/05 08:02:01;;;;;;;1.58;1.33;;;34.40;96.70;;;;;;4869534;29;20288;-67
2023/06/05 08:04:28;;;;;;;3.42;2.20;;;35.80;97.30;;;;;;4886048;29;20193;-70
2023/06/05 08:06:55;;;;;;;3.85;1.85;;;36.40;95.50;;;;;;4890585;29;20236;-69
2023/06/05 08:09:22;;;;;;;2.65;1.60;;;37.20;94.20;;;;;;4889927;29;20658;-69
2023/06/05 08:11:49;;;;;;;4.25;2.40;;;36.80;94.20;;;;;;4858715;29;20252;-69
2023/06/05 08:14:17;;;;;;;5.05;2.45;;;35.00;94.30;;;;;;4876998;29;20196;-68
2023/06/05 08:16:44;;;;;;;2.90;2.08;;;34.70;93.70;;;;;;4887347;29;20199;-68
2023/06/05 08:19:11;;;;;;;4.25;1.95;;;34.10;94.30;;;;;;4879053;29;20223;-68
2023/06/05 08:21:38;;;;;;;3.63;2.40;;;34.50;93.90;;;;;;4887241;29;20208;-67
2023/06/05 08:24:06;;;;;;;3.03;2.00;;;34.70;93.00;;;;;;4885435;29;20287;-67
2023/06/05 08:26:33;;;;;;;2.55;2.13;;;34.20;94.20;;;;;;4873837;29;20197;-68
2023/06/05 08:29:00;;;;;;;2.90;2.10;;;34.10;93.80;;;;;;4871319;29;20192;-68
2023/06/05 08:31:27;;;;;;;3.13;2.22;;;35.50;94.70;;;;;;4859010;29;20204;-70
2023/06/05 08:33:54;;;;;;;3.28;2.15;;;36.00;93.80;;;;;;4886459;29;20291;-70
2023/06/05 08:36:24;;;;;;;3.97;2.45;;;37.60;93.00;;;;;;4885720;29;20200;-70
2023/06/05 08:38:51;;;;;;;6.97;2.38;;;37.00;91.40;;;;;;4889949;29;20286;-68
2023/06/05 08:41:18;;;;;;;10.40;2.45;;;35.70;91.10;;;;;;4857842;29;20627;-68
2023/06/05 08:43:45;;;;;;;2.33;1.75;;;34.50;91.50;;;;;;4894347;29;20201;-69
2023/06/05 08:46:13;;;;;;;2.70;1.73;;;35.50;92.50;;;;;;4873478;29;20200;-69
2023/06/05 08:48:45;;;;;;;4.53;2.00;;;34.70;91.70;;;;;;4871437;29;20200;-67
2023/06/05 08:51:17;;;;;;;2.63;1.63;;;35.90;91.20;;;;;;4887640;29;20228;-69
2023/06/05 08:54:12;;;;;;;1.90;1.70;;;35.90;90.90;;;;;;4883772;29;20205;-68
2023/06/05 08:56:41;;;;;;;2.40;1.95;;;35.40;90.20;;;;;;4887682;29;20205;-69
2023/06/05 08:59:10;;;;;;;2.85;1.92;;;36.80;89.70;;;;;;4893466;29;20552;-70
2023/06/05 09:01:37;;;;;;;2.25;1.70;;;36.50;87.70;;;;;;4887996;29;20529;-70
2023/06/05 09:04:04;;;;;;;3.78;2.30;;;37.50;87.80;;;;;;4887080;29;20200;-69
2023/06/05 09:06:36;;;;;;;3.20;1.92;;;37.20;84.10;;;;;;4882465;29;20259;-70
2023/06/05 09:09:03;;;;;;;2.53;2.05;;;36.30;87.50;;;;;;4887899;29;20189;-70
2023/06/05 09:11:31;;;;;;;4.20;2.28;;;36.50;86.20;;;;;;4873084;29;20200;-68
2023/06/05 09:14:00;;;;;;;2.25;1.90;;;34.10;80.10;;;;;;4885236;29;20189;-68
2023/06/05 09:16:38;;;;;;;3.03;1.85;;;33.90;84.30;;;;;;4894120;29;20573;-67
2023/06/05 09:19:06;;;;;;;3.33;2.17;;;34.20;84.50;;;;;;4890468;29;20212;-68
2023/06/05 09:21:33;;;;;;;5.45;2.38;;;34.60;83.70;;;;;;4869623;29;20212;-68
2023/06/05 09:24:11;;;;;;;2.40;1.90;;;34.40;83.10;;;;;;4869727;29;20680;-68
2023/06/05 09:26:56;;;;;;;4.07;2.28;;;33.50;79.80;;;;;;4891021;29;20524;-68
2023/06/05 09:29:27;;;;;;;5.07;2.35;;;31.70;80.10;;;;;;4870117;29;21021;-69
2023/06/05 09:31:57;;;;;;;5.38;2.03;;;32.90;83.50;;;;;;4892939;29;20798;-67
2023/06/05 09:34:37;;;;;;;2.65;1.90;;;33.40;82.10;;;;;;4890400;29;20208;-68
2023/06/05 09:37:06;;;;;;;3.08;2.22;;;33.70;83.30;;;;;;4874418;29;20811;-70
2023/06/05 09:39:38;;;;;;;3.67;2.13;;;35.00;79.20;;;;;;4869505;29;20227;-71
2023/06/05 09:42:06;;;;;;;3.13;2.00;;;34.80;81.60;;;;;;4882582;29;20668;-71
2023/06/05 09:44:34;;;;;;;3.05;2.28;;;35.10;80.40;;;;;;4876320;29;20204;-70
2023/06/05 09:47:08;;;;;;;2.42;1.73;;;35.10;78.70;;;;;;4873226;29;20213;-70
2023/06/05 09:49:41;;;;;;;5.28;2.03;;;35.20;78.00;;;;;;4852955;29;20233;-68
2023/06/05 09:52:10;;;;;;;4.28;1.67;;;36.00;77.20;;;;;;4888952;29;20216;-69
2023/06/05 09:54:40;;;;;;;5.15;1.92;;;35.70;74.60;;;;;;4892963;29;20282;-68
2023/06/05 09:57:09;;;;;;;3.60;2.10;;;33.60;76.80;;;;;;4891370;29;20495;-68
2023/06/05 09:59:41;;;;;;;2.95;2.13;;;35.30;75.20;;;;;;4885671;29;20368;-70
2023/06/05 10:02:09;;;;;;;6.80;2.22;;;34.10;75.90;;;;;;4872948;29;20208;-68
2023/06/05 10:04:47;;;;;;;3.53;2.28;;;32.70;74.40;;;;;;4876684;29;20211;-68
2023/06/05 10:07:15;;;;;;;6.28;2.58;;;33.10;75.80;;;;;;4856662;29;20271;-68
2023/06/05 10:09:44;;;;;;;2.55;1.67;;;31.70;73.30;;;;;;4873347;29;20207;-68
2023/06/05 10:12:12;;;;;;;5.20;2.20;;;31.80;76.40;;;;;;4877313;29;20211;-68
2023/06/05 10:14:41;;;;;;;2.50;1.70;;;33.50;73.00;;;;;;4856772;29;20212;-68
2023/06/05 10:17:11;;;;;;;4.90;2.53;;;33.40;74.10;;;;;;4888350;29;20248;-67
2023/06/05 10:19:42;;;;;;;7.28;2.13;;;32.70;74.10;;;;;;4864277;29;20201;-68
2023/06/05 10:22:13;;;;;;;3.70;2.15;;;33.50;73.40;;;;;;4885031;29;20204;-68
2023/06/05 10:24:47;;;;;;;3.38;2.05;;;34.40;73.00;;;;;;4877388;29;20241;-68
2023/06/05 10:27:26;;;;;;;2.65;1.60;;;34.70;68.90;;;;;;4862788;29;20259;-68
2023/06/05 10:30:14;;;;;;;2.65;2.00;;;33.80;72.00;;;;;;4859136;29;20326;-67
2023/06/05 10:32:59;;;;;;;2.47;2.08;;;34.20;71.50;;;;;;4885045;29;20706;-68
2023/06/05 10:36:05;;;;;;;2.33;1.90;;;32.40;70.80;;;;;;4886063;29;20271;-70
2023/06/05 10:38:33;;;;;;;4.93;1.33;;;34.00;70.60;;;;;;4826158;29;20273;-67
2023/06/05 10:41:03;;;;;;;2.15;1.75;;;33.00;70.50;;;;;;4830882;29;20301;-69
2023/06/05 10:43:47;;;;;;;3.30;1.95;;;33.40;70.00;;;;;;4852632;29;20204;-68
2023/06/05 10:46:27;;;;;;;2.15;1.65;;;33.60;70.20;;;;;;4879711;29;20304;-68
2023/06/05 10:49:07;;;;;;;4.47;1.70;;;33.10;70.30;;;;;;4872550;29;20193;-68
2023/06/05 10:51:45;;;;;;;5.97;2.00;;;33.60;69.00;;;;;;4887745;29;20192;-67
2023/06/05 10:54:17;;;;;;;3.00;1.77;;;32.40;69.60;;;;;;4854900;29;20200;-70
2023/06/05 10:57:06;;;;;;;3.63;1.75;;;32.60;69.00;;;;;;4886362;29;20218;-69
2023/06/05 10:59:38;;;;;;;4.22;2.00;;;32.90;66.90;;;;;;4868963;29;20624;-67
2023/06/05 11:02:26;;;;;;;3.13;1.50;;;32.90;66.80;;;;;;4888511;29;20263;-68
2023/06/05 11:04:52;;;;;;;2.22;2.00;;;33.20;66.40;;;;;;4873372;29;20288;-67
2023/06/05 11:07:28;;;;;;;4.90;2.30;;;32.60;65.90;;;;;;4887647;29;20573;-70
2023/06/05 11:10:20;;;;;;;6.35;2.38;;;31.00;65.90;;;;;;4855529;29;20205;-69
2023/06/05 11:12:50;;;;;;;3.75;1.90;;;31.60;67.90;;;;;;4855668;29;20220;-68
2023/06/05 11:15:29;;;;;;;3.55;1.95;;;33.50;67.70;;;;;;4897192;29;20204;-68
2023/06/05 11:17:56;;;;;;;3.95;2.50;;;32.90;65.60;;;;;;4886096;29;20219;-68
2023/06/05 11:20:24;;;;;;;3.28;1.85;;;32.10;66.30;;;;;;4888102;29;20192;-70
2023/06/05 11:22:56;;;;;;;2.55;1.90;;;32.60;65.10;;;;;;4884851;29;20619;-69
2023/06/05 11:25:26;;;;;;;4.70;2.28;;;32.00;64.80;;;;;;4890135;29;20224;-67
2023/06/05 11:28:10;;;;;;;3.13;2.08;;;30.30;63.40;;;;;;4876450;29;20197;-68
2023/06/05 11:30:45;;;;;;;3.50;2.60;;;30.20;64.40;;;;;;4876716;29;20189;-69
2023/06/05 11:33:17;;;;;;;3.42;1.88;;;29.90;65.30;;;;;;4895919;29;20255;-67
2023/06/05 11:35:47;;;;;;;1.95;1.75;;;31.10;64.80;;;;;;4878672;29;20754;-70
2023/06/05 11:38:14;;;;;;;2.60;1.50;;;32.00;62.40;;;;;;4865333;29;20312;-68
2023/06/05 11:40:44;;;;;;;2.17;1.92;;;31.40;86.70;;;;;;4868528;29;20726;-69
2023/06/05 11:43:13;;;;;;;3.60;1.88;;;30.00;61.90;;;;;;4884920;29;20277;-70
2023/06/05 11:45:42;;;;;;;2.38;1.73;;;29.80;63.50;;;;;;4874398;29;20188;-69
2023/06/05 11:48:11;;;;;;;2.38;1.52;;;30.10;63.00;;;;;;4883849;29;20238;-69
2023/06/05 11:50:58;;;;;;;2.85;1.70;;;30.30;63.00;;;;;;4867387;29;20232;-67
2023/06/05 11:53:26;;;;;;;2.95;1.85;;;30.80;63.40;;;;;;4871955;29;20681;-69
2023/06/05 11:56:06;;;;;;;4.88;1.55;;;29.70;60.70;;;;;;4850645;29;20212;-69
2023/06/05 11:58:39;;;;;;;2.72;1.92;;;29.10;63.00;;;;;;4880957;29;20204;-69
2023/06/05 12:01:22;;;;;;;2.30;1.65;;;29.10;62.10;;;;;;4880441;29;20196;-68
2023/06/05 12:04:06;;;;;;;3.65;1.80;;;29.10;61.60;;;;;;4871004;29;20911;-68
2023/06/05 12:06:46;;;;;;;2.42;1.77;;;30.40;63.00;;;;;;4893895;29;20298;-68
2023/06/05 12:09:15;;;;;;;5.70;1.48;;;28.80;60.90;;;;;;4891781;29;20205;-70
2023/06/05 12:11:44;;;;;;;2.97;1.55;;;28.60;61.50;;;;;;4886584;29;20531;-68
2023/06/05 12:14:13;;;;;;;1.65;1.25;;;28.20;61.90;;;;;;4873238;29;20211;-68
2023/06/05 12:16:43;;;;;;;3.05;1.67;;;28.10;60.00;;;;;;4849011;29;20201;-69
2023/06/05 12:19:12;;;;;;;1.38;1.10;;;28.20;61.40;;;;;;4888941;29;20223;-69
2023/06/05 12:21:43;;;;;;;2.30;1.42;;;28.50;62.90;;;;;;4866977;29;20204;-69
2023/06/05 12:24:11;;;;;;;1.50;1.40;;;28.10;61.20;;;;;;4868472;29;20905;-77
2023/06/05 12:27:08;;;;;;;3.50;1.98;;;27.00;60.70;;;;;;4872675;29;20225;-68
2023/06/05 12:29:38;;;;;;;5.78;2.10;;;28.60;63.00;;;;;;4862331;29;20216;-68
2023/06/05 12:32:23;;;;;;;4.28;1.80;;;28.90;62.50;;;;;;4894272;29;20575;-71
2023/06/05 12:34:53;;;;;;;2.60;1.80;;;28.00;62.20;;;;;;4871988;29;21866;-68
2023/06/05 12:37:37;;;;;;;2.78;1.50;;;28.80;64.60;;;;;;4866593;29;21018;-68
2023/06/05 12:40:10;;;;;;;2.97;2.10;;;28.60;63.90;;;;;;4873524;29;20218;-69
2023/06/05 12:42:40;;;;;;;4.90;2.00;;;27.80;63.90;;;;;;4885519;29;20212;-68
2023/06/05 12:45:08;;;;;;;4.88;1.98;;;27.00;64.20;;;;;;4873407;29;20193;-70
2023/06/05 12:47:36;;;;;;;4.28;2.00;;;26.60;64.10;;;;;;4891041;29;20256;-69
2023/06/05 12:50:05;;;;;;;3.03;1.65;;;26.90;65.30;;;;;;4875588;29;20519;-68
2023/06/05 12:52:33;;;;;;;2.55;1.83;;;27.30;67.10;;;;;;4878644;29;20295;-67
2023/06/05 12:55:00;;;;;;;2.78;2.17;;;26.90;66.20;;;;;;4894424;29;20664;-69
2023/06/05 12:57:28;;;;;;;2.97;2.00;;;26.90;67.20;;;;;;4879926;29;20686;-68
2023/06/05 12:59:55;;;;;;;2.60;1.85;;;26.60;67.00;;;;;;4892620;29;20288;-69